createdAt,value
2019-02-05T00:30:00.414Z,1.70
2019-02-05T00:35:06.181Z,1.70
2019-02-05T00:37:39.187Z,1.40
2019-02-05T00:40:10.765Z,1.90
2019-02-05T00:43:25.385Z,2.00
2019-02-05T00:48:51.906Z,1.70
2019-02-05T00:51:24.703Z,1.60
2019-02-05T00:53:56.442Z,1.60
2019-02-05T00:56:27.737Z,1.50
2019-02-05T00:59:03.548Z,1.40
2019-02-05T01:02:20.487Z,1.30
2019-02-05T01:04:59.486Z,0.90
2019-02-05T01:07:46.521Z,0.90
2019-02-05T01:10:26.059Z,1.10
2019-02-05T01:12:57.863Z,1.00
2019-02-05T01:15:43.144Z,0.90
2019-02-05T01:18:14.653Z,0.70
2019-02-05T01:20:45.968Z,0.80
2019-02-05T01:23:17.478Z,0.80
2019-02-05T01:25:48.864Z,0.70
2019-02-05T01:28:20.852Z,0.50
2019-02-05T01:30:52.469Z,0.70
2019-02-05T01:33:24.125Z,0.60
2019-02-05T01:35:55.699Z,0.60
2019-02-05T01:41:34.843Z,0.50
2019-02-05T01:44:06.379Z,0.50
2019-02-05T01:46:37.801Z,0.50
2019-02-05T02:09:31.261Z,0.20
2019-02-05T02:12:14.230Z,0.20
2019-02-05T02:14:58.792Z,0.20
2019-02-05T02:17:47.892Z,-0.10
2019-02-05T02:20:27.063Z,0.10
2019-02-05T02:26:08.500Z,0.10
2019-02-05T02:28:44.946Z,-0.40
2019-02-05T02:33:48.403Z,-0.10
2019-02-05T02:36:23.612Z,-0.10
2019-02-05T02:38:56.311Z,-0.10
2019-02-05T02:50:30.701Z,-0.20
2019-02-05T02:53:01.980Z,-0.20
2019-02-05T02:55:33.411Z,-0.30
2019-02-05T02:58:05.043Z,-0.30
2019-02-05T03:00:36.570Z,-0.40
2019-02-05T03:03:08.129Z,-0.40
2019-02-05T03:05:56.170Z,-0.40
2019-02-05T03:08:56.232Z,-0.40
2019-02-05T03:11:27.574Z,-0.40
2019-02-05T03:14:11.207Z,-0.50
2019-02-05T03:16:48.931Z,-0.50
2019-02-05T03:19:20.418Z,-0.50
2019-02-05T03:21:51.982Z,-0.50
2019-02-05T03:24:25.572Z,-0.50
2019-02-05T03:26:57.035Z,-0.50
2019-02-05T03:41:29.830Z,-0.80
2019-02-05T03:44:01.209Z,-0.30
2019-02-05T03:46:35.696Z,-0.50
2019-02-05T03:49:07.079Z,-0.60
2019-02-05T03:54:38.679Z,-0.30
2019-02-05T04:04:11.058Z,-0.50
2019-02-05T04:07:56.062Z,-0.90
2019-02-05T04:14:27.591Z,-0.70
2019-02-05T04:17:41.285Z,-0.70
2019-02-05T04:23:28.093Z,-0.90
2019-02-05T04:26:40.643Z,-0.70
2019-02-05T04:30:08.005Z,-0.80
2019-02-05T04:33:23.537Z,-0.80
2019-02-05T04:36:48.813Z,-1.00
2019-02-05T04:39:39.808Z,-0.70
2019-02-05T04:42:53.398Z,-0.80
2019-02-05T04:46:00.404Z,-0.40
2019-02-05T04:49:21.918Z,-0.80
2019-02-05T04:52:42.974Z,-0.30
2019-02-05T04:55:46.784Z,-0.80
2019-02-05T04:58:43.588Z,-0.80
2019-02-05T05:01:41.482Z,-1.00
2019-02-05T05:04:45.505Z,-0.90
2019-02-05T05:08:06.917Z,-0.90
2019-02-05T05:10:38.197Z,-0.90
2019-02-05T05:16:15.829Z,-0.80
2019-02-05T05:22:26.786Z,-0.90
2019-02-05T05:27:31.325Z,-0.80
2019-02-05T05:30:11.020Z,-0.90
2019-02-05T05:32:42.565Z,-0.90
2019-02-05T05:35:14.367Z,-0.90
2019-02-05T05:37:46.765Z,-1.00
2019-02-05T05:40:18.198Z,-0.90
2019-02-05T05:42:50.109Z,-0.90
2019-02-05T05:45:21.915Z,-0.90
2019-02-05T05:47:53.889Z,-0.90
2019-02-05T05:50:25.370Z,-0.90
2019-02-05T05:52:56.805Z,-0.90
2019-02-05T05:55:28.346Z,-0.90
2019-02-05T05:58:00.226Z,-0.90
2019-02-05T06:00:31.844Z,-0.90
2019-02-05T06:03:03.315Z,-0.90
2019-02-05T06:05:35.361Z,-0.90
2019-02-05T06:08:08.125Z,-0.90
2019-02-05T06:10:39.717Z,-0.90
2019-02-05T06:13:11.133Z,-0.50
2019-02-05T06:15:42.697Z,-0.80
2019-02-05T06:18:14.018Z,-0.90
2019-02-05T06:20:45.485Z,-0.80
2019-02-05T06:23:17.116Z,-0.80
2019-02-05T06:25:48.595Z,-0.80
2019-02-05T06:28:33.991Z,-0.80
2019-02-05T06:30:54.918Z,-1.00
2019-02-05T06:33:26.293Z,-1.00
2019-02-05T06:35:57.697Z,-0.70
2019-02-05T06:41:02.872Z,-0.60
2019-02-05T06:43:34.596Z,-1.00
2019-02-05T06:46:05.993Z,-0.70
2019-02-05T06:48:37.659Z,-0.70
2019-02-05T06:51:08.950Z,-0.70
2019-02-05T06:56:52.661Z,-0.80
2019-02-05T06:59:24.108Z,-0.60
2019-02-05T07:01:55.509Z,-0.60
2019-02-05T07:04:27.157Z,-0.60
2019-02-05T07:06:58.803Z,-0.60
2019-02-05T07:09:30.089Z,-0.60
2019-02-05T07:12:01.621Z,-0.20
2019-02-05T07:14:33.197Z,1.00
2019-02-05T07:17:04.642Z,-0.60
2019-02-05T07:19:36.589Z,-1.10
2019-02-05T07:22:08.868Z,-0.50
2019-02-05T07:24:40.455Z,-0.50
2019-02-05T07:27:11.879Z,-0.40
2019-02-05T07:29:43.370Z,-0.40
2019-02-05T07:32:15.130Z,-0.20
2019-02-05T07:34:46.639Z,-0.30
2019-02-05T07:37:19.483Z,0.20
2019-02-05T07:39:51.254Z,-0.40
2019-02-05T07:42:23.090Z,-0.10
2019-02-05T07:44:54.660Z,-0.40
2019-02-05T07:47:27.075Z,0.10
2019-02-05T07:49:58.365Z,0.10
2019-02-05T07:52:30.376Z,0.10
2019-02-05T07:55:01.777Z,0.20
2019-02-05T07:57:33.205Z,0.30
2019-02-05T08:00:07.184Z,0.40
2019-02-05T08:02:38.789Z,0.60
2019-02-05T08:05:14.141Z,0.80
2019-02-05T08:07:45.663Z,1.00
2019-02-05T08:10:19.314Z,1.20
2019-02-05T08:12:51.121Z,1.40
2019-02-05T08:15:25.388Z,1.60
2019-02-05T08:24:14.769Z,1.90
2019-02-05T08:58:13.712Z,2.80
2019-02-05T09:03:55.292Z,2.70
2019-02-05T09:06:28.639Z,2.70
2019-02-05T09:09:00.046Z,2.60
2019-02-05T09:11:31.708Z,2.60
2019-02-05T09:14:10.622Z,2.60
2019-02-05T09:49:50.640Z,2.40
2019-02-05T09:52:22.097Z,2.30
2019-02-05T09:54:54.053Z,2.30
2019-02-05T09:57:28.421Z,2.30
2019-02-05T10:00:00.357Z,2.30
2019-02-05T10:02:32.348Z,2.30
2019-02-05T10:05:03.918Z,2.20
2019-02-05T10:18:32.912Z,2.50
2019-02-05T10:21:06.004Z,2.50
2019-02-05T10:23:37.765Z,2.50
2019-02-05T10:26:09.449Z,2.60
2019-02-05T10:28:43.002Z,2.60
2019-02-05T10:31:14.825Z,2.70
2019-02-05T10:40:01.781Z,2.60
2019-02-05T10:42:33.354Z,2.60
2019-02-05T10:45:07.822Z,2.60
2019-02-05T10:47:42.053Z,2.50
2019-02-05T10:50:15.378Z,2.50
2019-02-05T10:52:48.520Z,2.50
2019-02-05T10:55:20.051Z,2.50
2019-02-05T10:57:55.156Z,2.50
2019-02-05T11:00:29.974Z,2.50
2019-02-05T11:03:02.863Z,2.50
2019-02-05T11:05:35.908Z,2.50
2019-02-05T11:08:08.740Z,2.50
2019-02-05T11:10:40.101Z,2.50
2019-02-05T11:19:34.884Z,2.50
2019-02-05T11:22:06.426Z,2.50
2019-02-05T11:24:38.050Z,2.50
2019-02-05T11:27:09.523Z,2.60
2019-02-05T11:29:49.067Z,2.60
2019-02-05T11:32:22.745Z,2.60
2019-02-05T11:34:55.933Z,2.60
2019-02-05T11:37:27.366Z,2.50
2019-02-05T11:40:00.456Z,2.50
2019-02-05T11:42:34.303Z,2.50
2019-02-05T11:45:08.155Z,2.50
2019-02-05T11:47:41.048Z,2.50
2019-02-05T11:50:14.073Z,2.50
2019-02-05T11:52:45.600Z,2.50
2019-02-05T11:55:18.815Z,2.50
2019-02-05T11:57:50.264Z,2.50
2019-02-05T12:00:41.039Z,2.50
2019-02-05T12:03:12.729Z,2.40
2019-02-05T12:05:44.253Z,2.40
2019-02-05T12:08:18.494Z,2.40
2019-02-05T12:10:50.304Z,2.40
2019-02-05T12:13:21.718Z,2.40
2019-02-05T12:15:53.334Z,2.50
2019-02-05T12:18:25.298Z,2.50
2019-02-05T12:20:56.746Z,2.50
2019-02-05T12:23:29.331Z,2.60
2019-02-05T12:26:00.762Z,2.60
2019-02-05T12:28:34.183Z,2.60
2019-02-05T12:31:05.727Z,2.60
2019-02-05T12:33:37.079Z,2.60
2019-02-05T12:36:10.612Z,2.60
2019-02-05T12:38:42.850Z,2.70
2019-02-05T12:41:14.299Z,2.70
2019-02-05T12:43:46.346Z,2.70
2019-02-05T12:46:19.044Z,2.70
2019-02-05T12:48:50.562Z,2.70
2019-02-05T12:51:23.225Z,2.80
2019-02-05T12:53:54.960Z,2.70
2019-02-05T12:56:26.435Z,2.70
2019-02-05T12:59:00.881Z,2.80
2019-02-05T13:01:32.549Z,2.80
2019-02-05T13:20:18.769Z,2.80
2019-02-05T13:22:50.165Z,2.80
2019-02-05T13:25:23.521Z,2.80
2019-02-05T13:27:55.143Z,2.80
2019-02-05T14:13:12.793Z,2.70
2019-02-05T14:15:46.873Z,2.60
2019-02-05T14:18:18.238Z,2.70
2019-02-05T14:20:51.850Z,2.70
2019-02-05T14:23:23.236Z,2.80
2019-02-05T14:25:54.604Z,2.80
2019-02-05T14:28:26.078Z,2.90
2019-02-05T14:30:58.580Z,3.00
2019-02-05T14:33:33.085Z,3.10
2019-02-05T14:36:08.883Z,3.10
2019-02-05T14:38:41.729Z,3.20
2019-02-05T14:41:12.967Z,3.30
2019-02-05T14:43:44.492Z,3.30
2019-02-05T14:46:15.892Z,3.30
2019-02-05T14:48:48.459Z,3.40
2019-02-05T14:51:21.467Z,3.40
2019-02-05T14:53:53.997Z,3.50
2019-02-05T14:56:25.456Z,3.50
2019-02-05T14:58:56.780Z,3.50
2019-02-05T15:01:28.053Z,3.50
2019-02-05T15:03:59.480Z,3.50
2019-02-05T15:06:32.314Z,4.80
2019-02-05T15:09:05.537Z,3.50
2019-02-05T15:11:38.065Z,3.50
2019-02-05T15:14:09.749Z,3.60
2019-02-05T15:16:46.462Z,3.50
2019-02-05T15:19:18.047Z,3.50
2019-02-05T15:21:50.363Z,3.50
2019-02-05T15:24:22.176Z,3.50
2019-02-05T15:26:53.627Z,3.50
2019-02-05T15:29:24.923Z,3.50
2019-02-05T15:31:56.283Z,3.40
2019-02-05T15:34:29.306Z,3.40
2019-02-05T15:37:00.745Z,3.40
2019-02-05T15:39:32.032Z,3.30
2019-02-05T15:42:03.640Z,3.40
2019-02-05T15:44:34.912Z,3.30
2019-02-05T15:47:06.077Z,3.30
2019-02-05T15:49:37.639Z,3.30
2019-02-05T15:52:09.166Z,3.30
2019-02-05T15:54:40.943Z,3.30
2019-02-05T15:57:12.354Z,3.30
2019-02-05T15:59:43.935Z,3.20
2019-02-05T16:02:15.441Z,3.20
2019-02-05T16:04:46.722Z,3.20
2019-02-05T16:07:18.074Z,3.20
2019-02-05T16:09:51.354Z,3.20
2019-02-05T16:12:22.651Z,3.10
2019-02-05T16:14:54.008Z,3.10
2019-02-05T16:17:25.297Z,3.10
2019-02-05T16:19:56.993Z,3.10
2019-02-05T16:22:47.000Z,3.10
2019-02-05T16:25:18.444Z,3.00
2019-02-05T16:27:50.017Z,3.00
2019-02-05T16:30:21.560Z,3.00
2019-02-05T16:32:52.885Z,3.00
2019-02-05T16:35:25.855Z,2.90
2019-02-05T16:37:57.309Z,2.90
2019-02-05T16:40:29.594Z,2.90
2019-02-05T16:43:01.019Z,2.90
2019-02-05T16:45:33.142Z,2.90
2019-02-05T16:48:04.624Z,2.90
2019-02-05T16:50:38.209Z,2.80
2019-02-05T16:53:09.783Z,2.80
2019-02-05T16:55:41.296Z,2.80
2019-02-05T16:58:29.513Z,2.80
2019-02-05T17:00:51.717Z,2.80
2019-02-05T17:03:26.530Z,2.80
2019-02-05T17:06:01.005Z,2.80
2019-02-05T17:08:33.288Z,3.90
2019-02-05T17:11:04.696Z,2.80
2019-02-05T17:13:36.143Z,2.80
2019-02-05T17:16:07.760Z,2.80
2019-02-05T17:18:39.252Z,2.70
2019-02-05T17:21:10.841Z,2.70
2019-02-05T17:23:42.459Z,2.70
2019-02-05T17:26:13.879Z,2.70
2019-02-05T17:28:45.153Z,2.70
2019-02-05T17:31:18.804Z,2.70
2019-02-05T17:33:50.110Z,2.70
2019-02-05T17:36:21.793Z,2.70
2019-02-05T17:39:04.109Z,2.70
2019-02-05T17:41:46.564Z,2.70
2019-02-05T17:44:19.032Z,2.70
2019-02-05T17:47:00.584Z,2.70
2019-02-05T17:49:41.409Z,2.70
2019-02-05T17:54:53.921Z,2.70
2019-02-05T17:57:42.558Z,2.60
2019-02-05T18:00:56.049Z,2.70
2019-02-05T18:03:25.276Z,2.70
2019-02-05T18:06:03.373Z,2.70
2019-02-05T18:09:34.254Z,2.60
2019-02-05T18:11:43.012Z,2.60
2019-02-05T18:14:29.604Z,2.60
2019-02-05T18:17:01.180Z,2.60
2019-02-05T18:19:34.792Z,2.60
2019-02-05T18:22:11.325Z,2.60
2019-02-05T18:24:48.657Z,2.60
2019-02-05T18:27:57.938Z,2.60
2019-02-05T18:30:37.158Z,2.60
2019-02-05T18:33:17.110Z,2.50
2019-02-05T18:36:20.110Z,2.60
2019-02-05T18:38:53.204Z,2.50
2019-02-05T18:41:44.150Z,2.50
2019-02-05T18:44:58.297Z,2.60
2019-02-05T18:47:09.107Z,2.50
2019-02-05T18:49:41.961Z,2.50
2019-02-05T18:52:13.329Z,2.50
2019-02-05T18:54:44.833Z,2.60
2019-02-05T18:57:16.176Z,2.50
2019-02-05T18:59:47.694Z,2.50
2019-02-05T19:02:18.961Z,2.50
2019-02-05T19:04:50.846Z,2.50
2019-02-05T19:07:22.172Z,2.50
2019-02-05T19:09:53.581Z,2.50
2019-02-05T19:12:25.057Z,2.50
2019-02-05T19:14:56.419Z,2.50
2019-02-05T19:17:27.865Z,2.50
2019-02-05T19:19:59.223Z,2.50
2019-02-05T19:22:30.579Z,2.50
2019-02-05T19:25:21.531Z,2.50
2019-02-05T19:27:52.905Z,2.50
2019-02-05T19:30:25.318Z,2.50
2019-02-05T19:32:56.965Z,2.50
2019-02-05T19:35:28.274Z,2.50
2019-02-05T19:38:00.840Z,2.50
2019-02-05T19:40:32.244Z,2.50
2019-02-05T19:43:04.279Z,2.50
2019-02-05T19:46:11.632Z,2.50
2019-02-05T19:48:49.062Z,2.50
2019-02-05T19:51:20.506Z,2.50
2019-02-05T19:53:53.891Z,2.50
2019-02-05T19:56:24.667Z,2.50
2019-02-05T19:58:57.312Z,2.50
2019-02-05T20:01:28.637Z,2.50
2019-02-05T20:04:00.048Z,2.50
2019-02-05T20:06:31.630Z,2.50
2019-02-05T20:09:04.544Z,2.50
2019-02-05T20:11:37.421Z,2.60
2019-02-05T20:14:08.835Z,2.60
2019-02-05T20:16:40.116Z,2.50
2019-02-05T20:19:11.543Z,2.60
2019-02-05T20:21:43.645Z,2.60
2019-02-05T20:24:15.292Z,2.60
2019-02-05T20:26:47.725Z,2.50
2019-02-05T20:29:19.061Z,2.50
2019-02-05T20:31:50.635Z,2.50
2019-02-05T20:34:22.261Z,2.50
2019-02-05T20:36:53.761Z,2.60
2019-02-05T20:39:25.041Z,2.50
2019-02-05T20:41:56.382Z,2.50
2019-02-05T20:44:27.807Z,2.50
2019-02-05T20:46:59.264Z,2.50
2019-02-05T20:49:30.998Z,2.50
2019-02-05T20:52:02.293Z,2.50
2019-02-05T20:54:41.290Z,2.50
2019-02-05T20:57:12.702Z,2.50
2019-02-05T20:59:44.344Z,2.50
2019-02-05T21:02:16.072Z,2.50
2019-02-05T21:04:49.289Z,2.50
2019-02-05T21:07:21.630Z,2.50
2019-02-05T21:09:54.473Z,2.50
2019-02-05T21:12:25.932Z,2.50
2019-02-05T21:14:57.613Z,2.50
2019-02-05T21:17:28.885Z,2.50
2019-02-05T21:20:00.692Z,2.50
2019-02-05T21:22:34.037Z,2.40
2019-02-05T21:25:07.068Z,2.40
2019-02-05T21:27:41.928Z,2.40
2019-02-05T21:30:15.607Z,2.30
2019-02-05T21:32:59.463Z,2.30
2019-02-05T21:35:26.989Z,2.30
2019-02-05T21:37:59.221Z,2.30
2019-02-05T21:40:31.702Z,2.30
2019-02-05T21:43:03.661Z,2.30
2019-02-05T21:45:37.002Z,2.30
2019-02-05T21:48:09.990Z,2.30
2019-02-05T21:50:41.807Z,2.30
2019-02-05T21:53:13.260Z,2.30
2019-02-05T21:55:46.309Z,2.30
2019-02-05T21:58:17.693Z,2.20
2019-02-05T22:00:48.996Z,2.30
2019-02-05T22:03:20.763Z,2.40
2019-02-05T22:05:52.122Z,2.40
2019-02-05T22:08:23.755Z,2.40
2019-02-05T22:10:55.051Z,2.40
2019-02-05T22:13:29.783Z,2.40
2019-02-05T22:16:01.282Z,2.40
2019-02-05T22:18:32.647Z,2.40
2019-02-05T22:21:04.466Z,2.40
2019-02-05T22:23:36.077Z,2.40
2019-02-05T22:26:07.998Z,2.40
2019-02-05T22:28:40.710Z,2.40
2019-02-05T22:31:13.484Z,2.40
2019-02-05T22:33:44.980Z,2.40
2019-02-05T22:36:16.444Z,2.40
2019-02-05T22:38:49.044Z,2.40
2019-02-05T22:41:20.943Z,2.40
2019-02-05T22:43:52.514Z,2.40
2019-02-05T22:46:29.788Z,2.40
2019-02-05T22:49:01.089Z,2.40
2019-02-05T22:51:32.409Z,2.40
2019-02-05T22:54:04.073Z,2.40
2019-02-05T22:56:35.425Z,2.40
2019-02-05T22:59:08.126Z,2.40
2019-02-05T23:01:53.099Z,2.40
2019-02-05T23:05:07.301Z,2.40
2019-02-05T23:07:39.307Z,2.40
2019-02-05T23:10:23.028Z,2.40
2019-02-05T23:13:03.168Z,2.40
2019-02-05T23:15:35.297Z,2.30
2019-02-05T23:18:06.858Z,2.30
2019-02-05T23:20:38.248Z,2.30
2019-02-05T23:23:09.616Z,2.30
2019-02-05T23:25:41.448Z,2.30
2019-02-05T23:28:12.750Z,2.30
2019-02-05T23:30:45.768Z,2.20
2019-02-05T23:33:17.034Z,2.20
2019-02-05T23:35:51.977Z,2.20
2019-02-05T23:38:29.747Z,2.20
2019-02-05T23:40:58.930Z,2.20
2019-02-05T23:43:34.628Z,2.20
2019-02-05T23:46:08.458Z,2.20
2019-02-05T23:48:40.265Z,2.20
2019-02-05T23:51:11.532Z,2.20
2019-02-05T23:53:42.906Z,2.20
2019-02-05T23:56:25.461Z,2.20
2019-02-05T23:58:50.275Z,2.20
